SECU/CUE METAR and TAF weather

Enter ICAO airport designator
Station Type Date Time Source
SECU METAR 2020/07/06 01:00 UTC NOAA

SECU 060100Z AUTO 27004KT 230V300 ////NDV NCD 15/13 Q1025


Station Type Date Time Source
SECU Decoded METAR 2020/07/06 01:00 UTC NOAA

Cuenca / Mariscal Lamar, Ecuador (SECU) 02-53S 078-59W 2531M
Jul 05, 2020 - 09:00 PM EDT / 2020.07.06 0100 UTC
Wind: from the W (270 degrees) at 5 MPH (4 KT) (direction variable):0
Temperature: 59 F (15 C)
Dew Point: 55 F (13 C)
Relative Humidity: 87%
Pressure (altimeter): 30.27 in. Hg (1025 hPa)
ob: SECU 060100Z AUTO 27004KT 230V300 ////NDV NCD 15/13 Q1025
cycle: 1

Station Type Date Time Source
SECU TAF 2019/10/28 06:45 UTC NOAA

TAF SECU 280435Z 2806/2906 VRB03KT 9999 FEW010 BKN033
BECMG 2814/2815 05005KT BKN040 BKN100 TX20/2819Z TN12/2811Z

Example: see airport list